Time;durP1;ratioP1;P1;durP2;ratioP2;P2;SDS_P1;SDS_P2;PMS_P1;PMS_P2;Temp;Humidity;BMP_temperature;BMP_pressure;BME280_temperature;BME280_humidity;BME280_pressure;Samples;Min_cycle;Max_cycle;Signal;HPM_P1;HPM_P2
2022/02/22 00:00:15;;;;;;;;;;;9.40;99.90;;;;;;4959261;28;19906;-91
2022/02/22 00:02:41;;;;;;;;;;;9.40;99.90;;;;;;4955388;28;19914;-93
2022/02/22 00:05:08;;;;;;;;;;;9.40;99.90;;;;;;4954364;28;19933;-91
2022/02/22 00:07:33;;;;;;;;;;;9.30;99.90;;;;;;4954365;28;19938;-91
2022/02/22 00:09:59;;;;;;;;;;;9.30;99.90;;;;;;4959494;28;19910;-92
2022/02/22 00:12:25;;;;;;;;;;;9.30;99.90;;;;;;4972729;28;19997;-91
2022/02/22 00:14:52;;;;;;;;;;;9.30;99.90;;;;;;4955062;28;19916;-94
2022/02/22 00:17:17;;;;;;;;;;;9.30;99.90;;;;;;4954855;28;19960;-91
2022/02/22 00:19:43;;;;;;;;;;;9.20;99.90;;;;;;4972417;28;19945;-91
2022/02/22 00:22:08;;;;;;;;;;;9.20;99.90;;;;;;4956070;28;20109;-91
2022/02/22 00:24:34;;;;;;;;;;;9.20;99.90;;;;;;4961764;28;20347;-91
2022/02/22 00:27:00;;;;;;;;;;;9.10;99.90;;;;;;4956809;28;19946;-93
2022/02/22 00:29:25;;;;;;;;;;;9.10;99.90;;;;;;4953605;28;20286;-91
2022/02/22 00:31:51;;;;;;;;;;;9.10;99.90;;;;;;4972647;28;19914;-91
2022/02/22 00:34:17;;;;;;;;;;;9.10;99.90;;;;;;4951517;28;19926;-91
2022/02/22 00:36:44;;;;;;;;;;;9.10;99.90;;;;;;4970033;28;20005;-91
2022/02/22 00:39:10;;;;;;;;;;;9.10;99.90;;;;;;4957993;28;19917;-91
2022/02/22 00:41:36;;;;;;;;;;;9.10;99.90;;;;;;4955056;28;19973;-90
2022/02/22 00:44:01;;;;;;;;;;;9.10;99.90;;;;;;4951538;28;20367;-92
2022/02/22 00:46:27;;;;;;;;;;;9.10;99.90;;;;;;4968999;28;19910;-91
2022/02/22 00:48:53;;;;;;;;;;;9.20;99.90;;;;;;4955397;28;19915;-92
2022/02/22 00:51:19;;;;;;;;;;;9.20;99.90;;;;;;4971973;28;19910;-94
2022/02/22 00:53:45;;;;;;;;;;;9.20;99.90;;;;;;4955603;28;19911;-91
2022/02/22 00:56:10;;;;;;;;;;;9.20;99.90;;;;;;4970946;28;20925;-92
2022/02/22 00:58:39;;;;;;;;;;;9.20;99.90;;;;;;4958260;28;19910;-91
2022/02/22 01:01:05;;;;;;;;;;;9.20;99.90;;;;;;4960518;28;19910;-91
2022/02/22 01:03:30;;;;;;;;;;;9.20;99.90;;;;;;4978684;28;19921;-91
2022/02/22 01:05:56;;;;;;;;;;;9.20;99.90;;;;;;4962036;28;19925;-92
2022/02/22 01:08:22;;;;;;;;;;;9.20;99.90;;;;;;4962853;28;19917;-94
2022/02/22 01:10:47;;;;;;;;;;;9.20;99.90;;;;;;4962021;28;19932;-91
2022/02/22 01:13:14;;;;;;;;;;;9.20;99.90;;;;;;4962013;28;19910;-90
2022/02/22 01:15:39;;;;;;;;;;;9.10;99.90;;;;;;4959284;28;19910;-93
2022/02/22 01:18:05;;;;;;;;;;;9.10;99.90;;;;;;4960585;28;19930;-90
2022/02/22 01:20:31;;;;;;;;;;;9.10;99.90;;;;;;4958326;28;19930;-91
2022/02/22 01:22:57;;;;;;;;;;;9.10;99.90;;;;;;4960077;28;19949;-90
2022/02/22 01:25:23;;;;;;;;;;;9.10;99.90;;;;;;4959257;28;19921;-89
2022/02/22 01:27:48;;;;;;;;;;;9.10;99.90;;;;;;4960309;28;19922;-91
2022/02/22 01:30:14;;;;;;;;;;;9.10;99.90;;;;;;4975346;28;19917;-91
2022/02/22 01:32:39;;;;;;;;;;;9.10;99.90;;;;;;4954473;28;20159;-90
2022/02/22 01:35:06;;;;;;;;;;;9.10;99.90;;;;;;4974511;28;19910;-90
2022/02/22 01:37:32;;;;;;;;;;;9.20;99.90;;;;;;4954819;28;19962;-91
2022/02/22 01:39:58;;;;;;;;;;;9.20;99.90;;;;;;4956418;28;19910;-91
2022/02/22 01:42:24;;;;;;;;;;;9.30;99.90;;;;;;4962127;28;19918;-91
2022/02/22 01:44:49;;;;;;;;;;;9.30;99.90;;;;;;4973732;28;19919;-91
2022/02/22 01:47:18;;;;;;;;;;;9.40;99.90;;;;;;4973276;28;19911;-91
2022/02/22 01:49:44;;;;;;;;;;;9.50;99.90;;;;;;4974321;28;19914;-90
2022/02/22 01:52:10;;;;;;;;;;;9.60;99.90;;;;;;4954582;28;20383;-91
2022/02/22 01:54:36;;;;;;;;;;;9.70;99.90;;;;;;4955164;28;19917;-91
2022/02/22 01:57:03;;;;;;;;;;;9.70;99.90;;;;;;4974963;28;19918;-91
2022/02/22 01:59:29;;;;;;;;;;;9.70;99.90;;;;;;4956595;28;19910;-91
2022/02/22 02:01:55;;;;;;;;;;;9.70;99.90;;;;;;4957839;28;19933;-91
2022/02/22 02:04:28;;;;;;;;;;;9.80;99.90;;;;;;4976868;28;19977;-90
2022/02/22 02:06:54;;;;;;;;;;;9.80;99.90;;;;;;4957016;28;20005;-91
2022/02/22 02:09:20;;;;;;;;;;;9.80;99.90;;;;;;4957072;28;20410;-91
2022/02/22 02:11:46;;;;;;;;;;;9.80;99.90;;;;;;4956609;28;19918;-91
2022/02/22 02:14:12;;;;;;;;;;;9.80;99.90;;;;;;4956748;28;19969;-91
2022/02/22 02:16:38;;;;;;;;;;;9.80;99.90;;;;;;4957899;28;19914;-94
2022/02/22 02:19:04;;;;;;;;;;;9.80;99.90;;;;;;4956689;28;19911;-91
2022/02/22 02:21:30;;;;;;;;;;;9.80;99.90;;;;;;4958366;28;20283;-91
2022/02/22 02:24:06;;;;;;;;;;;9.80;99.90;;;;;;4954606;28;20283;-91
2022/02/22 02:26:31;;;;;;;;;;;9.80;99.90;;;;;;4956769;28;19926;-90
2022/02/22 02:28:57;;;;;;;;;;;9.80;99.90;;;;;;4956320;28;19965;-90
2022/02/22 02:31:23;;;;;;;;;;;9.80;99.90;;;;;;4956175;28;20363;-95
2022/02/22 02:33:48;;;;;;;;;;;9.80;99.90;;;;;;4973887;28;19948;-90
2022/02/22 02:36:14;;;;;;;;;;;9.70;99.90;;;;;;4956192;28;20353;-91
2022/02/22 02:38:41;;;;;;;;;;;9.70;99.90;;;;;;4956139;28;20198;-91
2022/02/22 02:41:07;;;;;;;;;;;9.60;99.90;;;;;;4956197;28;20331;-91
2022/02/22 02:43:32;;;;;;;;;;;9.60;99.90;;;;;;4952986;28;19917;-92
2022/02/22 02:45:58;;;;;;;;;;;9.50;99.90;;;;;;4967721;28;19965;-90
2022/02/22 02:48:23;;;;;;;;;;;9.50;99.90;;;;;;4953165;28;19915;-94
2022/02/22 02:50:49;;;;;;;;;;;9.40;99.90;;;;;;4966244;28;20383;-91
2022/02/22 02:53:15;;;;;;;;;;;9.40;99.90;;;;;;4953289;28;20364;-91
2022/02/22 02:55:40;;;;;;;;;;;9.30;99.90;;;;;;4971895;28;19950;-92
2022/02/22 02:58:06;;;;;;;;;;;9.30;99.90;;;;;;4958265;28;19961;-91
2022/02/22 03:00:32;;;;;;;;;;;9.20;99.90;;;;;;4958224;28;19914;-91
2022/02/22 03:02:57;;;;;;;;;;;9.30;99.90;;;;;;4971783;28;19910;-92
2022/02/22 03:05:23;;;;;;;;;;;9.20;99.90;;;;;;4952607;28;19964;-91
2022/02/22 03:07:48;;;;;;;;;;;9.20;99.90;;;;;;4971933;28;19917;-92
2022/02/22 03:10:14;;;;;;;;;;;9.20;99.90;;;;;;4956509;28;19911;-91
2022/02/22 03:12:40;;;;;;;;;;;9.20;99.90;;;;;;4953373;28;19914;-94
2022/02/22 03:15:06;;;;;;;;;;;9.20;99.90;;;;;;4968749;28;20430;-92
2022/02/22 03:17:31;;;;;;;;;;;9.20;99.90;;;;;;4955621;28;20401;-91
2022/02/22 03:19:57;;;;;;;;;;;9.20;99.90;;;;;;4955721;28;19914;-92
2022/02/22 03:22:22;;;;;;;;;;;9.30;99.90;;;;;;4972939;28;19933;-92
2022/02/22 03:24:48;;;;;;;;;;;9.30;99.90;;;;;;4955525;28;19918;-91
2022/02/22 03:27:14;;;;;;;;;;;9.40;99.90;;;;;;4955364;28;20384;-91
2022/02/22 03:29:40;;;;;;;;;;;9.40;99.90;;;;;;4973083;28;19920;-91
2022/02/22 03:32:05;;;;;;;;;;;9.40;99.90;;;;;;4957153;28;19921;-92
2022/02/22 03:34:31;;;;;;;;;;;9.50;99.90;;;;;;4956043;28;19907;-91
2022/02/22 03:36:57;;;;;;;;;;;9.50;99.90;;;;;;4955248;28;19915;-92
2022/02/22 03:39:22;;;;;;;;;;;9.50;99.90;;;;;;4956554;28;20492;-91
2022/02/22 03:41:48;;;;;;;;;;;9.60;99.90;;;;;;4955226;28;19910;-91
2022/02/22 03:44:14;;;;;;;;;;;9.60;99.90;;;;;;4955766;28;19910;-92
2022/02/22 03:46:40;;;;;;;;;;;9.70;99.90;;;;;;4952500;28;20371;-92
2022/02/22 03:49:05;;;;;;;;;;;9.70;99.90;;;;;;4972188;28;19917;-91
2022/02/22 03:51:31;;;;;;;;;;;9.70;99.90;;;;;;4955259;28;19918;-90
2022/02/22 03:53:56;;;;;;;;;;;9.80;99.90;;;;;;4955538;28;19961;-91
2022/02/22 03:56:22;;;;;;;;;;;9.80;99.90;;;;;;4954492;28;19965;-91
2022/02/22 03:58:48;;;;;;;;;;;9.80;99.90;;;;;;4955178;28;19985;-91
2022/02/22 04:01:13;;;;;;;;;;;9.80;99.90;;;;;;4954530;28;19961;-91
2022/02/22 04:03:39;;;;;;;;;;;9.80;99.90;;;;;;4969032;28;19918;-91
2022/02/22 04:06:04;;;;;;;;;;;9.80;99.90;;;;;;4955253;28;20330;-93
2022/02/22 04:08:30;;;;;;;;;;;9.90;99.90;;;;;;4955231;28;19914;-90
2022/02/22 04:10:56;;;;;;;;;;;9.90;99.90;;;;;;4972581;28;19911;-91
2022/02/22 04:13:21;;;;;;;;;;;9.90;99.90;;;;;;4955807;28;20186;-92
2022/02/22 04:15:47;;;;;;;;;;;9.90;99.90;;;;;;4954931;28;20000;-90
2022/02/22 04:18:12;;;;;;;;;;;10.00;99.90;;;;;;4955079;28;19960;-91
2022/02/22 04:20:38;;;;;;;;;;;10.00;99.90;;;;;;4954846;28;19910;-92
2022/02/22 04:23:04;;;;;;;;;;;10.00;99.90;;;;;;4958916;28;20395;-91
2022/02/22 04:25:29;;;;;;;;;;;10.00;99.90;;;;;;4956539;28;20307;-92
2022/02/22 04:27:55;;;;;;;;;;;10.00;99.90;;;;;;4961262;28;19929;-91
2022/02/22 04:30:21;;;;;;;;;;;9.90;99.90;;;;;;4956540;28;20257;-92
2022/02/22 04:32:46;;;;;;;;;;;10.00;99.90;;;;;;4955485;28;20001;-90
2022/02/22 04:35:12;;;;;;;;;;;10.00;99.90;;;;;;4960009;28;19917;-91
2022/02/22 04:37:38;;;;;;;;;;;10.00;99.90;;;;;;4978371;28;19917;-91
2022/02/22 04:40:04;;;;;;;;;;;10.10;99.90;;;;;;4958483;28;19910;-94
2022/02/22 04:42:30;;;;;;;;;;;10.10;99.90;;;;;;4977204;28;19911;-92
2022/02/22 04:44:56;;;;;;;;;;;10.20;99.90;;;;;;4955160;28;19973;-91
2022/02/22 04:47:22;;;;;;;;;;;10.20;99.90;;;;;;4973240;28;19910;-91
2022/02/22 04:49:47;;;;;;;;;;;10.20;99.90;;;;;;4958435;28;19910;-93
2022/02/22 04:52:13;;;;;;;;;;;10.10;99.90;;;;;;4978552;28;19910;-90
2022/02/22 04:54:38;;;;;;;;;;;10.10;99.90;;;;;;4955463;28;20372;-90
2022/02/22 04:57:05;;;;;;;;;;;10.10;99.90;;;;;;4971583;28;19956;-91
2022/02/22 04:59:31;;;;;;;;;;;10.10;99.90;;;;;;4977689;28;19910;-91
2022/02/22 05:01:56;;;;;;;;;;;10.10;99.90;;;;;;4958305;28;20009;-92
2022/02/22 05:04:22;;;;;;;;;;;10.10;99.90;;;;;;4960933;28;19906;-90
2022/02/22 05:06:47;;;;;;;;;;;10.10;99.90;;;;;;4958056;28;20346;-90
2022/02/22 05:09:13;;;;;;;;;;;10.10;99.90;;;;;;4957348;28;19914;-93
2022/02/22 05:11:41;;;;;;;;;;;10.10;99.90;;;;;;4975637;28;20017;-92
2022/02/22 05:14:07;;;;;;;;;;;10.10;99.90;;;;;;4960616;28;19910;-91
2022/02/22 05:16:35;;;;;;;;;;;10.10;99.90;;;;;;4966165;28;20338;-92
2022/02/22 05:19:01;;;;;;;;;;;10.10;99.90;;;;;;4985639;28;19910;-91
2022/02/22 05:21:27;;;;;;;;;;;10.20;99.90;;;;;;4985530;28;19941;-91
2022/02/22 05:23:52;;;;;;;;;;;10.20;99.90;;;;;;4983416;28;19906;-91
2022/02/22 05:26:18;;;;;;;;;;;10.20;99.90;;;;;;4965830;28;19942;-92
2022/02/22 05:28:46;;;;;;;;;;;10.20;99.90;;;;;;4965895;28;19923;-91
2022/02/22 05:31:13;;;;;;;;;;;10.30;99.90;;;;;;4964085;28;20013;-91
2022/02/22 05:33:38;;;;;;;;;;;10.20;99.90;;;;;;4977655;28;19914;-91
2022/02/22 05:36:04;;;;;;;;;;;10.30;99.90;;;;;;4976045;28;19910;-92
2022/02/22 05:38:30;;;;;;;;;;;10.30;99.90;;;;;;4978005;28;19982;-92
2022/02/22 05:40:55;;;;;;;;;;;10.30;99.90;;;;;;4971785;28;19914;-90
2022/02/22 05:43:21;;;;;;;;;;;10.40;99.90;;;;;;4992105;28;19925;-91
2022/02/22 05:45:47;;;;;;;;;;;10.40;99.90;;;;;;4992864;28;20185;-90
2022/02/22 05:48:12;;;;;;;;;;;10.40;99.90;;;;;;4972668;28;19911;-92
2022/02/22 05:50:38;;;;;;;;;;;10.40;99.90;;;;;;4990552;28;19910;-91
2022/02/22 05:53:05;;;;;;;;;;;10.40;99.90;;;;;;4972011;28;19941;-92
2022/02/22 05:55:30;;;;;;;;;;;10.40;99.90;;;;;;4966280;28;19973;-90
2022/02/22 05:57:56;;;;;;;;;;;10.40;99.90;;;;;;4972046;28;19909;-90
2022/02/22 06:00:21;;;;;;;;;;;10.40;99.90;;;;;;4991021;28;19914;-91
2022/02/22 06:02:48;;;;;;;;;;;10.40;99.90;;;;;;4975019;28;19910;-91
2022/02/22 06:05:14;;;;;;;;;;;10.40;99.90;;;;;;4975173;28;19925;-90
2022/02/22 06:07:40;;;;;;;;;;;10.40;99.90;;;;;;4964592;28;19910;-91
2022/02/22 06:10:06;;;;;;;;;;;10.40;99.90;;;;;;4975794;28;19920;-90
2022/02/22 06:12:32;;;;;;;;;;;10.40;99.90;;;;;;4958604;28;19911;-92
2022/02/22 06:14:58;;;;;;;;;;;10.40;99.90;;;;;;4956627;28;19911;-91
2022/02/22 06:17:24;;;;;;;;;;;10.40;99.90;;;;;;4955734;28;20001;-90
2022/02/22 06:19:49;;;;;;;;;;;10.40;99.90;;;;;;4955335;28;19910;-90
2022/02/22 06:22:16;;;;;;;;;;;10.40;99.90;;;;;;4955368;28;20244;-90
2022/02/22 06:24:41;;;;;;;;;;;10.40;99.90;;;;;;4956573;28;19945;-90
2022/02/22 06:27:07;;;;;;;;;;;10.50;99.90;;;;;;4973650;28;19970;-94
2022/02/22 06:29:33;;;;;;;;;;;10.50;99.90;;;;;;4974414;28;20287;-91
2022/02/22 06:31:59;;;;;;;;;;;10.50;99.90;;;;;;4954017;28;19926;-91
2022/02/22 06:34:24;;;;;;;;;;;10.50;99.90;;;;;;4976574;28;19910;-93
2022/02/22 06:36:50;;;;;;;;;;;10.40;99.90;;;;;;4956590;28;19917;-90
2022/02/22 06:39:15;;;;;;;;;;;10.50;99.90;;;;;;4961597;28;19914;-93
2022/02/22 06:41:41;;;;;;;;;;;10.50;99.90;;;;;;4981028;28;19915;-95
2022/02/22 06:47:34;;;;;;;;;;;10.50;99.90;;;;;;4962394;28;20291;-95
2022/02/22 06:49:59;;;;;;;;;;;10.50;99.90;;;;;;4973587;28;19911;-93
2022/02/22 06:52:27;;;;;;;;;;;10.50;99.90;;;;;;4954649;28;19918;-94
2022/02/22 06:54:52;;;;;;;;;;;10.50;99.90;;;;;;4955069;28;20291;-93
2022/02/22 06:57:18;;;;;;;;;;;10.50;99.90;;;;;;4953841;28;19914;-93
2022/02/22 06:59:44;;;;;;;;;;;10.50;99.90;;;;;;4953581;28;19986;-93
2022/02/22 07:02:09;;;;;;;;;;;10.50;99.90;;;;;;4956603;28;19917;-93
2022/02/22 07:04:35;;;;;;;;;;;10.50;99.90;;;;;;4954136;28;20431;-94
2022/02/22 07:07:01;;;;;;;;;;;10.50;99.90;;;;;;4954669;28;20291;-93
2022/02/22 07:09:27;;;;;;;;;;;10.50;99.90;;;;;;4952844;28;19937;-94
2022/02/22 07:11:53;;;;;;;;;;;10.50;99.90;;;;;;4964080;28;19906;-94
2022/02/22 07:14:19;;;;;;;;;;;10.50;99.90;;;;;;4982146;28;19906;-94
2022/02/22 07:16:45;;;;;;;;;;;10.50;99.90;;;;;;4966431;28;19906;-94
2022/02/22 07:19:10;;;;;;;;;;;10.60;99.90;;;;;;4981066;28;19910;-93
2022/02/22 07:21:36;;;;;;;;;;;10.60;99.90;;;;;;4966889;28;20006;-93
2022/02/22 07:24:02;;;;;;;;;;;10.60;99.90;;;;;;4966026;28;19914;-93
2022/02/22 07:26:28;;;;;;;;;;;10.70;99.90;;;;;;4967099;28;19953;-93
2022/02/22 07:28:56;;;;;;;;;;;10.70;99.90;;;;;;4968552;28;19914;-94
2022/02/22 07:31:21;;;;;;;;;;;10.70;99.90;;;;;;4969101;28;20093;-94
2022/02/22 07:33:49;;;;;;;;;;;10.70;99.90;;;;;;4963778;28;19938;-93
2022/02/22 07:36:15;;;;;;;;;;;10.70;99.90;;;;;;4960387;28;19911;-94
2022/02/22 07:38:40;;;;;;;;;;;10.70;99.90;;;;;;4958320;28;20384;-94
2022/02/22 07:41:06;;;;;;;;;;;10.70;99.90;;;;;;4960103;28;19953;-93
2022/02/22 07:43:32;;;;;;;;;;;10.70;99.90;;;;;;4976543;28;20371;-94
2022/02/22 07:45:57;;;;;;;;;;;10.80;99.90;;;;;;4957989;28;19949;-94
2022/02/22 07:48:23;;;;;;;;;;;10.80;99.90;;;;;;4956478;28;19921;-93
2022/02/22 07:50:48;;;;;;;;;;;10.80;99.90;;;;;;4957426;28;19910;-94
2022/02/22 07:53:14;;;;;;;;;;;10.80;99.90;;;;;;4958256;28;19911;-94
2022/02/22 07:55:40;;;;;;;;;;;10.80;99.90;;;;;;4957670;28;20002;-94
2022/02/22 07:58:05;;;;;;;;;;;10.80;99.90;;;;;;4961706;28;20024;-94
2022/02/22 08:00:31;;;;;;;;;;;10.90;99.90;;;;;;4954108;28;20135;-93
2022/02/22 08:02:57;;;;;;;;;;;10.80;99.90;;;;;;4972634;28;20287;-95
2022/02/22 08:05:23;;;;;;;;;;;10.80;99.90;;;;;;4958990;28;20389;-93
2022/02/22 08:07:48;;;;;;;;;;;10.90;99.90;;;;;;4957436;28;20378;-93
2022/02/22 08:10:14;;;;;;;;;;;10.90;99.90;;;;;;4956624;28;19910;-94
2022/02/22 08:12:40;;;;;;;;;;;10.90;99.90;;;;;;4956906;28;20213;-93
2022/02/22 08:15:07;;;;;;;;;;;11.00;99.90;;;;;;4956067;28;20283;-94
2022/02/22 08:17:32;;;;;;;;;;;11.00;99.90;;;;;;4956701;28;20425;-93
2022/02/22 08:20:01;;;;;;;;;;;11.00;99.90;;;;;;4960762;28;19987;-94
2022/02/22 08:22:27;;;;;;;;;;;11.00;99.90;;;;;;4956905;28;19894;-95
2022/02/22 08:24:52;;;;;;;;;;;11.10;99.90;;;;;;4959816;28;19932;-94
2022/02/22 08:27:19;;;;;;;;;;;11.10;99.90;;;;;;4962975;28;19930;-93
2022/02/22 08:29:45;;;;;;;;;;;11.20;99.90;;;;;;4957565;28;20006;-94
2022/02/22 08:32:10;;;;;;;;;;;11.20;99.90;;;;;;4955529;28;20355;-93
2022/02/22 08:34:36;;;;;;;;;;;11.30;99.90;;;;;;4971612;28;19914;-94
2022/02/22 08:37:02;;;;;;;;;;;11.30;99.90;;;;;;4963774;28;19918;-94
2022/02/22 08:39:27;;;;;;;;;;;11.30;99.90;;;;;;4956983;28;20013;-94
2022/02/22 08:41:53;;;;;;;;;;;11.30;99.90;;;;;;4956564;28;19914;-93
2022/02/22 08:44:19;;;;;;;;;;;11.40;99.90;;;;;;4955235;28;19918;-94
2022/02/22 08:46:44;;;;;;;;;;;11.30;99.90;;;;;;4953962;28;19911;-93
2022/02/22 08:49:10;;;;;;;;;;;11.30;99.90;;;;;;4952109;28;19965;-94
2022/02/22 08:51:36;;;;;;;;;;;11.30;99.90;;;;;;4972456;28;19914;-93
2022/02/22 08:54:08;;;;;;;;;;;11.40;99.90;;;;;;4960363;28;19968;-94
2022/02/22 08:56:33;;;;;;;;;;;11.40;99.90;;;;;;4955916;28;19960;-93
2022/02/22 08:58:59;;;;;;;;;;;11.40;99.90;;;;;;4974125;28;19915;-93
2022/02/22 09:01:27;;;;;;;;;;;11.40;99.90;;;;;;4958300;28;19966;-94
2022/02/22 09:03:52;;;;;;;;;;;11.40;99.90;;;;;;4954990;28;19910;-94
2022/02/22 09:06:18;;;;;;;;;;;11.50;99.90;;;;;;4957769;28;20269;-95
2022/02/22 09:08:43;;;;;;;;;;;11.50;99.90;;;;;;4957502;28;19922;-93
2022/02/22 09:11:09;;;;;;;;;;;11.50;99.90;;;;;;4976193;28;20398;-94
2022/02/22 09:13:35;;;;;;;;;;;11.60;99.90;;;;;;4959131;28;19914;-94
2022/02/22 09:16:00;;;;;;;;;;;11.60;99.90;;;;;;4972192;28;19917;-94
2022/02/22 09:18:26;;;;;;;;;;;11.60;99.90;;;;;;4958724;28;20159;-94
2022/02/22 09:20:52;;;;;;;;;;;11.60;99.90;;;;;;4973389;28;19929;-93
2022/02/22 09:23:17;;;;;;;;;;;11.60;99.90;;;;;;4960578;28;19894;-93
2022/02/22 09:25:43;;;;;;;;;;;11.60;99.90;;;;;;4961327;28;20643;-93
2022/02/22 09:28:13;;;;;;;;;;;11.60;99.90;;;;;;4977714;28;19926;-94
2022/02/22 09:30:39;;;;;;;;;;;11.60;99.90;;;;;;4961038;28;19965;-94
2022/02/22 09:33:05;;;;;;;;;;;11.70;99.90;;;;;;4959248;28;19915;-93
2022/02/22 09:35:31;;;;;;;;;;;11.70;99.90;;;;;;4961376;28;19925;-94
2022/02/22 09:38:01;;;;;;;;;;;11.70;99.90;;;;;;4960162;28;19962;-94
2022/02/22 09:40:28;;;;;;;;;;;11.70;99.90;;;;;;4958995;28;20369;-93
2022/02/22 09:42:53;;;;;;;;;;;11.80;99.90;;;;;;4963003;28;20441;-93
2022/02/22 09:45:20;;;;;;;;;;;11.70;99.90;;;;;;4958916;28;19958;-93
2022/02/22 09:47:46;;;;;;;;;;;11.70;99.90;;;;;;4960721;28;19910;-94
2022/02/22 09:50:12;;;;;;;;;;;11.70;99.90;;;;;;4960237;28;19914;-94
2022/02/22 09:52:38;;;;;;;;;;;11.80;99.90;;;;;;4958272;28;19997;-94
2022/02/22 09:55:05;;;;;;;;;;;11.80;99.90;;;;;;4961507;28;19969;-93
2022/02/22 09:57:31;;;;;;;;;;;11.80;99.90;;;;;;4957196;28;19910;-93
2022/02/22 10:00:00;;;;;;;;;;;11.90;99.90;;;;;;4955350;28;19969;-94
2022/02/22 10:02:38;;;;;;;;;;;12.00;99.90;;;;;;4957086;28;19926;-94
2022/02/22 10:05:13;;;;;;;;;;;11.90;99.90;;;;;;4959207;28;19981;-94
2022/02/22 10:07:43;;;;;;;;;;;11.80;99.90;;;;;;4959342;28;20338;-93
2022/02/22 10:10:08;;;;;;;;;;;11.90;99.90;;;;;;4957725;28;19972;-94
2022/02/22 10:12:38;;;;;;;;;;;11.90;99.90;;;;;;4957212;28;20441;-92
2022/02/22 10:15:06;;;;;;;;;;;12.00;99.90;;;;;;4958090;28;19914;-94
2022/02/22 10:17:36;;;;;;;;;;;11.90;99.90;;;;;;4957884;28;20398;-93
2022/02/22 10:20:03;;;;;;;;;;;12.10;99.90;;;;;;4959040;28;20162;-94
2022/02/22 10:22:29;;;;;;;;;;;12.10;99.90;;;;;;4962048;28;19910;-96
2022/02/22 10:25:08;;;;;;;;;;;12.10;99.90;;;;;;4959037;28;20014;-93
2022/02/22 10:27:45;;;;;;;;;;;12.20;99.90;;;;;;4977158;28;19989;-94
2022/02/22 10:30:25;;;;;;;;;;;12.20;99.90;;;;;;4955333;28;19919;-94
2022/02/22 10:32:51;;;;;;;;;;;12.20;99.90;;;;;;4965270;28;19898;-94
2022/02/22 10:35:33;;;;;;;;;;;12.20;99.90;;;;;;4958027;28;19910;-94
2022/02/22 10:37:59;;;;;;;;;;;12.40;99.90;;;;;;4957243;28;20311;-93
2022/02/22 10:40:29;;;;;;;;;;;12.40;99.90;;;;;;4961253;28;19957;-93
2022/02/22 10:42:54;;;;;;;;;;;12.50;99.90;;;;;;4957423;28;20130;-93
2022/02/22 10:45:20;;;;;;;;;;;12.50;99.90;;;;;;4958299;28;19898;-93
2022/02/22 10:47:50;;;;;;;;;;;12.60;99.90;;;;;;4957320;28;20062;-93
2022/02/22 10:50:23;;;;;;;;;;;12.80;99.90;;;;;;4955592;28;19919;-94
2022/02/22 10:52:48;;;;;;;;;;;12.80;99.90;;;;;;4952802;28;19910;-93
2022/02/22 10:55:14;;;;;;;;;;;12.90;99.90;;;;;;4957548;28;19911;-94
2022/02/22 10:57:40;;;;;;;;;;;12.80;99.90;;;;;;4956430;28;20490;-93
2022/02/22 11:00:06;;;;;;;;;;;12.80;99.90;;;;;;4960069;28;19894;-93
2022/02/22 11:02:37;;;;;;;;;;;12.90;99.90;;;;;;4974396;28;20072;-93
2022/02/22 11:05:02;;;;;;;;;;;12.90;99.90;;;;;;4956108;28;20407;-93
2022/02/22 11:07:29;;;;;;;;;;;12.80;99.90;;;;;;4956212;28;19918;-94
2022/02/22 11:09:55;;;;;;;;;;;12.70;99.90;;;;;;4956198;28;19938;-93
2022/02/22 11:12:25;;;;;;;;;;;12.90;99.90;;;;;;4959201;28;19961;-93
2022/02/22 11:14:51;;;;;;;;;;;13.00;99.90;;;;;;4958129;28;19917;-94
2022/02/22 11:17:18;;;;;;;;;;;13.10;99.90;;;;;;4956628;28;19921;-94
2022/02/22 11:19:47;;;;;;;;;;;13.10;99.90;;;;;;4955233;28;19894;-91
2022/02/22 11:22:17;;;;;;;;;;;13.00;99.90;;;;;;4956948;28;19945;-93
2022/02/22 11:24:45;;;;;;;;;;;12.90;99.90;;;;;;4958020;28;20354;-93
2022/02/22 11:27:11;;;;;;;;;;;12.80;99.90;;;;;;4957225;28;19918;-93
2022/02/22 11:29:37;;;;;;;;;;;12.90;99.90;;;;;;4956846;28;19914;-92
2022/02/22 11:32:04;;;;;;;;;;;12.90;99.90;;;;;;4970988;28;20374;-93
2022/02/22 11:34:34;;;;;;;;;;;12.80;99.90;;;;;;4956424;28;19938;-93
2022/02/22 11:37:02;;;;;;;;;;;12.80;99.90;;;;;;4955423;28;20380;-93
2022/02/22 11:39:28;;;;;;;;;;;12.80;99.90;;;;;;4955694;28;19911;-92
2022/02/22 11:41:54;;;;;;;;;;;12.90;99.90;;;;;;4953807;28;19914;-93
2022/02/22 11:44:21;;;;;;;;;;;12.80;99.90;;;;;;4957734;28;19914;-93
2022/02/22 11:46:48;;;;;;;;;;;12.80;99.90;;;;;;4955863;28;19915;-92
2022/02/22 11:49:21;;;;;;;;;;;13.00;99.90;;;;;;4968822;28;19914;-93
2022/02/22 11:51:48;;;;;;;;;;;13.00;99.90;;;;;;4956705;28;20374;-94
2022/02/22 11:54:31;;;;;;;;;;;13.10;99.90;;;;;;4954955;28;19914;-94
2022/02/22 11:57:01;;;;;;;;;;;13.20;99.90;;;;;;4960092;28;19945;-93
2022/02/22 11:59:30;;;;;;;;;;;13.10;99.90;;;;;;4956679;28;19921;-94
2022/02/22 12:01:56;;;;;;;;;;;13.20;99.90;;;;;;4959310;28;19929;-94
2022/02/22 12:04:29;;;;;;;;;;;13.20;99.90;;;;;;4956606;28;19919;-93
2022/02/22 12:06:59;;;;;;;;;;;13.30;99.90;;;;;;4955869;28;19941;-93
2022/02/22 12:09:34;;;;;;;;;;;13.50;99.90;;;;;;4958368;28;19910;-93
2022/02/22 12:12:06;;;;;;;;;;;13.60;99.90;;;;;;4973475;28;19914;-94
2022/02/22 12:14:31;;;;;;;;;;;13.80;99.90;;;;;;4957887;28;19961;-93
2022/02/22 12:16:57;;;;;;;;;;;13.80;99.90;;;;;;4963874;28;19898;-93
2022/02/22 12:19:23;;;;;;;;;;;13.90;99.90;;;;;;4967716;28;20049;-93
2022/02/22 12:21:50;;;;;;;;;;;14.00;99.90;;;;;;4972748;28;19901;-93
2022/02/22 12:24:20;;;;;;;;;;;13.80;99.90;;;;;;4953428;28;20427;-93
2022/02/22 12:26:45;;;;;;;;;;;13.60;99.90;;;;;;4967951;28;20008;-94
2022/02/22 12:29:11;;;;;;;;;;;13.60;99.90;;;;;;4956060;28;19942;-93
2022/02/22 12:31:43;;;;;;;;;;;13.50;99.90;;;;;;4954001;28;19911;-93
2022/02/22 12:34:14;;;;;;;;;;;13.60;99.90;;;;;;4954995;28;19911;-93
2022/02/22 12:36:40;;;;;;;;;;;13.50;99.90;;;;;;4972605;28;19902;-93
2022/02/22 12:39:09;;;;;;;;;;;13.50;99.90;;;;;;4955497;28;19949;-93
2022/02/22 12:41:36;;;;;;;;;;;13.40;99.90;;;;;;4956782;28;19916;-92
2022/02/22 12:44:05;;;;;;;;;;;13.20;99.90;;;;;;4960492;28;19986;-93
2022/02/22 12:46:31;;;;;;;;;;;13.40;99.90;;;;;;4976225;28;19922;-92
2022/02/22 12:48:57;;;;;;;;;;;13.30;99.90;;;;;;4977063;28;20017;-93
2022/02/22 12:51:24;;;;;;;;;;;13.30;99.90;;;;;;4957801;29;19962;-93
2022/02/22 12:53:57;;;;;;;;;;;13.30;99.90;;;;;;4958160;28;19895;-92
2022/02/22 12:56:42;;;;;;;;;;;13.20;99.90;;;;;;4959345;28;19917;-92
2022/02/22 12:59:09;;;;;;;;;;;13.40;99.90;;;;;;4958516;28;20142;-92
2022/02/22 13:01:36;;;;;;;;;;;13.50;99.90;;;;;;4959793;28;19957;-92
2022/02/22 13:04:04;;;;;;;;;;;13.40;99.90;;;;;;4968191;28;20458;-92
2022/02/22 13:06:32;;;;;;;;;;;13.20;99.90;;;;;;4952505;28;19922;-92
2022/02/22 13:08:59;;;;;;;;;;;13.20;99.90;;;;;;4976854;28;19917;-92
2022/02/22 13:11:34;;;;;;;;;;;13.20;99.90;;;;;;4960311;28;19917;-92
2022/02/22 13:14:01;;;;;;;;;;;13.30;99.90;;;;;;4953576;28;19922;-92
2022/02/22 13:16:26;;;;;;;;;;;13.40;99.90;;;;;;4959380;28;19910;-92
2022/02/22 13:18:53;;;;;;;;;;;13.40;99.90;;;;;;4955227;28;19918;-92
2022/02/22 13:21:19;;;;;;;;;;;13.50;99.90;;;;;;4956829;28;19936;-92
2022/02/22 13:23:44;;;;;;;;;;;13.40;99.90;;;;;;4957780;28;19999;-93
2022/02/22 13:26:10;;;;;;;;;;;13.40;99.90;;;;;;4974614;28;20214;-93
2022/02/22 13:28:53;;;;;;;;;;;13.50;99.90;;;;;;4974274;28;19977;-93
2022/02/22 13:31:19;;;;;;;;;;;13.50;99.90;;;;;;4976620;28;19914;-92
2022/02/22 13:34:03;;;;;;;;;;;13.80;99.90;;;;;;4957858;28;20286;-91
2022/02/22 13:36:30;;;;;;;;;;;13.70;99.90;;;;;;4957686;28;19953;-92
2022/02/22 13:38:59;;;;;;;;;;;13.40;99.90;;;;;;4959942;28;19914;-92
2022/02/22 13:41:33;;;;;;;;;;;13.20;99.90;;;;;;4959444;28;19910;-92
2022/02/22 13:43:59;;;;;;;;;;;13.00;99.90;;;;;;4959125;28;19925;-93
2022/02/22 13:46:28;;;;;;;;;;;12.90;99.90;;;;;;4956641;28;19918;-93
2022/02/22 13:48:58;;;;;;;;;;;12.90;99.90;;;;;;4955786;28;20406;-92
2022/02/22 13:51:24;;;;;;;;;;;13.00;99.90;;;;;;4957635;28;19953;-94
2022/02/22 13:53:49;;;;;;;;;;;13.10;99.90;;;;;;4973647;28;19910;-93
2022/02/22 13:56:15;;;;;;;;;;;12.90;99.90;;;;;;4976720;28;19894;-93
2022/02/22 13:58:40;;;;;;;;;;;12.90;99.90;;;;;;4960229;28;19965;-93
2022/02/22 14:01:09;;;;;;;;;;;13.00;99.90;;;;;;4957315;28;19950;-93
2022/02/22 14:03:35;;;;;;;;;;;13.10;99.90;;;;;;4957308;28;20383;-93
2022/02/22 14:06:02;;;;;;;;;;;13.20;99.90;;;;;;4975120;28;20448;-92
2022/02/22 14:08:28;;;;;;;;;;;13.20;99.90;;;;;;4976123;28;19922;-92
2022/02/22 14:10:53;;;;;;;;;;;13.10;99.90;;;;;;4957349;28;19910;-92
2022/02/22 14:13:20;;;;;;;;;;;13.10;99.90;;;;;;4957999;28;20521;-92
2022/02/22 14:15:46;;;;;;;;;;;13.00;99.90;;;;;;4955364;28;19946;-92
2022/02/22 14:18:12;;;;;;;;;;;12.90;99.90;;;;;;4955285;28;19917;-94
2022/02/22 14:20:38;;;;;;;;;;;12.80;99.90;;;;;;4955467;28;19981;-92